createdAt,value
2022-12-19T00:03:29.206Z,101911.00
2022-12-19T00:08:34.389Z,101904.66
2022-12-19T00:13:41.150Z,101895.19
2022-12-19T00:18:48.649Z,101884.61
2022-12-19T00:23:54.944Z,101878.50
2022-12-19T00:29:09.835Z,101868.52
2022-12-19T00:34:17.409Z,101869.67
2022-12-19T00:39:22.799Z,101868.71
2022-12-19T00:44:28.971Z,101867.70
2022-12-19T00:49:32.487Z,101868.59
2022-12-19T00:54:37.335Z,101872.33
2022-12-19T00:59:41.735Z,101871.31
2022-12-19T01:04:45.687Z,101862.77
2022-12-19T01:09:50.121Z,101856.11
2022-12-19T01:15:04.435Z,101844.31
2022-12-19T01:20:11.385Z,101835.13
2022-12-19T01:25:16.672Z,101828.14
2022-12-19T01:30:21.233Z,101819.05
2022-12-19T01:35:27.075Z,101811.04
2022-12-19T01:40:32.152Z,101802.10
2022-12-19T01:45:45.482Z,101798.52
2022-12-19T01:51:01.359Z,101796.90
2022-12-19T01:56:11.626Z,101788.48
2022-12-19T02:01:18.985Z,101783.22
2022-12-19T02:06:23.891Z,101781.67
2022-12-19T02:11:28.916Z,101778.45
2022-12-19T02:16:56.655Z,101768.89
2022-12-19T02:22:24.459Z,101756.10
2022-12-19T02:27:37.137Z,101748.13
2022-12-19T02:32:52.414Z,101740.73
2022-12-19T02:38:02.945Z,101745.55
2022-12-19T02:43:13.809Z,101740.01
2022-12-19T02:48:20.144Z,101742.72
2022-12-19T02:53:24.987Z,101743.56
2022-12-19T02:58:40.014Z,101737.77
2022-12-19T03:03:47.170Z,101735.80
2022-12-19T03:09:36.898Z,101722.23
2022-12-19T03:14:42.308Z,101719.73
2022-12-19T03:19:46.372Z,101718.50
2022-12-19T03:24:51.678Z,101722.02
2022-12-19T03:30:12.999Z,101728.50
2022-12-19T03:35:30.312Z,101730.37
2022-12-19T03:40:37.672Z,101726.81
2022-12-19T03:45:58.591Z,101721.80
2022-12-19T03:51:09.118Z,101715.12
2022-12-19T03:56:57.181Z,101712.68
2022-12-19T04:02:03.724Z,101714.08
2022-12-19T04:07:09.039Z,101716.57
2022-12-19T04:12:19.569Z,101715.95
2022-12-19T04:17:37.512Z,101710.02
2022-12-19T04:23:07.605Z,101700.75
2022-12-19T04:28:31.566Z,101693.50
2022-12-19T04:33:36.593Z,101682.52
2022-12-19T04:38:41.620Z,101676.08
2022-12-19T04:43:45.246Z,101666.17
2022-12-19T04:48:49.701Z,101659.98
2022-12-19T04:53:54.949Z,101655.40
2022-12-19T04:59:00.553Z,101650.67
2022-12-19T05:04:05.390Z,101647.44
2022-12-19T05:09:14.690Z,101647.33
2022-12-19T05:14:18.851Z,101649.65
2022-12-19T05:19:23.238Z,101642.86
2022-12-19T05:24:28.367Z,101639.03
2022-12-19T05:29:33.445Z,101637.08
2022-12-19T05:34:38.478Z,101632.83
2022-12-19T05:39:43.905Z,101629.73
2022-12-19T05:44:49.164Z,101623.30
2022-12-19T05:49:54.708Z,101617.45
2022-12-19T05:54:58.899Z,101616.20
2022-12-19T06:00:05.552Z,101620.69
2022-12-19T06:05:11.088Z,101620.48
2022-12-19T06:10:17.016Z,101614.64
2022-12-19T06:15:21.754Z,101609.26
2022-12-19T06:20:26.741Z,101603.54
2022-12-19T06:25:30.448Z,101599.27
2022-12-19T06:30:34.848Z,101599.24
2022-12-19T06:35:38.821Z,101596.30
2022-12-19T06:41:03.697Z,101601.41
2022-12-19T06:46:09.434Z,101598.59
2022-12-19T06:51:14.875Z,101588.55
2022-12-19T06:56:21.019Z,101579.36
2022-12-19T07:01:41.323Z,101576.59
2022-12-19T07:06:49.196Z,101580.10
2022-12-19T07:11:55.119Z,101568.88
2022-12-19T07:17:01.671Z,101571.20
2022-12-19T07:22:07.037Z,101576.92
2022-12-19T07:27:10.754Z,101591.34
2022-12-19T07:32:15.136Z,101598.45
2022-12-19T07:37:20.326Z,101598.48
2022-12-19T07:42:29.351Z,101589.70
2022-12-19T07:47:38.147Z,101587.41
2022-12-19T07:52:42.950Z,101590.48
2022-12-19T07:57:47.793Z,101586.48
2022-12-19T08:02:52.235Z,101587.80
2022-12-19T08:07:57.373Z,101586.58
2022-12-19T08:13:02.421Z,101583.49
2022-12-19T08:18:07.293Z,101578.67
2022-12-19T08:23:10.726Z,101562.28
2022-12-19T08:28:14.519Z,101544.98
2022-12-19T08:33:20.641Z,101546.88
2022-12-19T08:38:24.171Z,101540.48
2022-12-19T08:43:29.173Z,101529.34
2022-12-19T08:48:34.819Z,101523.59
2022-12-19T08:53:41.911Z,101522.12
2022-12-19T08:58:47.293Z,101515.80
2022-12-19T09:04:41.423Z,101521.25
2022-12-19T09:09:17.714Z,101513.54
2022-12-19T09:14:22.434Z,101506.35
2022-12-19T09:19:27.913Z,101494.45
2022-12-19T09:24:33.077Z,101488.08
2022-12-19T09:29:36.939Z,101474.23
2022-12-19T09:34:42.032Z,101450.81
2022-12-19T09:39:48.335Z,101438.44
2022-12-19T09:45:00.735Z,101434.66
2022-12-19T09:50:33.268Z,101421.35
2022-12-19T09:55:41.253Z,101414.77
2022-12-19T10:00:55.050Z,101403.39
2022-12-19T10:07:11.418Z,101397.77
2022-12-19T10:12:43.157Z,101373.00
2022-12-19T10:17:23.599Z,101367.73
2022-12-19T10:22:33.837Z,101357.02
2022-12-19T10:27:59.446Z,101352.64
2022-12-19T10:33:08.191Z,101338.27
2022-12-19T10:38:38.350Z,101336.42
2022-12-19T10:44:08.818Z,101326.48
2022-12-19T10:49:18.432Z,101318.74
2022-12-19T10:54:30.662Z,101301.95
2022-12-19T10:59:38.957Z,101291.19
2022-12-19T11:04:43.161Z,101277.63
2022-12-19T11:10:09.174Z,101264.07
2022-12-19T11:19:41.890Z,101243.20
2022-12-19T11:29:54.792Z,101243.51
2022-12-19T11:30:36.283Z,101236.38
2022-12-19T11:37:00.565Z,101224.61
2022-12-19T11:42:09.018Z,101213.21
2022-12-19T11:47:25.898Z,101205.20
2022-12-19T11:53:13.016Z,101218.08
2022-12-19T11:58:26.244Z,101198.97
2022-12-19T12:04:03.286Z,101194.52
2022-12-19T12:11:13.853Z,101189.34
2022-12-19T12:24:36.940Z,101174.11
2022-12-19T12:31:05.880Z,101160.64
2022-12-19T12:31:52.365Z,101162.09
2022-12-19T12:35:55.108Z,101149.52
2022-12-19T12:38:23.457Z,101144.33
2022-12-19T12:43:57.680Z,101139.16
2022-12-19T12:49:06.749Z,101128.55
2022-12-19T12:54:16.907Z,101133.21
2022-12-19T12:59:26.929Z,101138.52
2022-12-19T13:04:34.116Z,101143.16
2022-12-19T13:09:38.038Z,101125.83
2022-12-19T13:14:46.254Z,101122.30
2022-12-19T13:20:06.415Z,101112.82
2022-12-19T13:25:48.711Z,101105.81
2022-12-19T13:31:18.645Z,101093.45
2022-12-19T13:39:51.597Z,101093.00
2022-12-19T13:42:40.659Z,101073.83
2022-12-19T13:47:45.783Z,101060.40
2022-12-19T13:52:51.447Z,101049.35
2022-12-19T13:57:56.334Z,101046.09
2022-12-19T14:03:01.734Z,101036.34
2022-12-19T14:08:08.268Z,101041.40
2022-12-19T14:13:57.635Z,101036.16
2022-12-19T14:19:01.722Z,101027.20
2022-12-19T14:24:22.964Z,101015.43
2022-12-19T14:30:26.730Z,101010.29
2022-12-19T14:36:06.965Z,101004.07
2022-12-19T14:40:41.977Z,101001.85
2022-12-19T14:54:10.727Z,100993.58
2022-12-19T14:54:21.239Z,100983.51
2022-12-19T14:57:04.851Z,100981.91
2022-12-19T15:02:10.676Z,100975.57
2022-12-19T15:07:19.850Z,100981.19
2022-12-19T15:14:47.748Z,100981.95
2022-12-19T15:18:28.150Z,100974.51
2022-12-19T15:23:33.684Z,100960.52
2022-12-19T15:28:44.136Z,100954.20
2022-12-19T15:34:23.408Z,100962.38
2022-12-19T15:39:15.914Z,100953.89
2022-12-19T15:44:31.549Z,100955.66
2022-12-19T15:49:37.087Z,100952.48
2022-12-19T15:54:50.504Z,100939.61
2022-12-19T16:00:01.624Z,100925.91
2022-12-19T16:05:07.456Z,100930.48
2022-12-19T16:10:13.678Z,100922.61
2022-12-19T16:15:31.479Z,100917.72
2022-12-19T16:20:38.815Z,100908.36
2022-12-19T16:25:46.712Z,100895.53
2022-12-19T16:30:50.927Z,100891.73
2022-12-19T16:36:04.649Z,100894.46
2022-12-19T16:41:31.051Z,100892.14
2022-12-19T16:46:51.146Z,100889.98
2022-12-19T16:51:56.551Z,100884.11
2022-12-19T16:57:04.366Z,100873.11
2022-12-19T17:02:39.046Z,100864.49
2022-12-19T17:07:44.919Z,100857.42
2022-12-19T17:12:51.015Z,100847.95
2022-12-19T17:18:01.694Z,100829.98
2022-12-19T17:23:21.990Z,100824.48
2022-12-19T17:28:28.834Z,100836.66
2022-12-19T17:33:37.566Z,100832.24
2022-12-19T17:38:42.195Z,100831.21
2022-12-19T17:43:46.764Z,100817.92
2022-12-19T17:48:54.140Z,100796.77
2022-12-19T17:53:59.207Z,100788.37
2022-12-19T17:59:04.373Z,100777.34
2022-12-19T18:04:17.893Z,100768.19
2022-12-19T18:09:25.886Z,100765.11
2022-12-19T18:14:32.048Z,100762.17
2022-12-19T18:19:36.778Z,100772.27
2022-12-19T18:24:41.457Z,100786.52
2022-12-19T18:35:57.684Z,100785.09
2022-12-19T18:41:04.165Z,100769.17
2022-12-19T18:46:17.136Z,100767.45
2022-12-19T18:51:23.892Z,100758.40
2022-12-19T18:56:29.709Z,100753.17
2022-12-19T19:01:40.300Z,100747.45
2022-12-19T19:06:51.100Z,100745.95
2022-12-19T19:11:56.380Z,100737.86
2022-12-19T19:17:04.980Z,100726.59
2022-12-19T19:22:11.469Z,100730.07
2022-12-19T19:27:16.189Z,100725.20
2022-12-19T19:32:20.722Z,100727.26
2022-12-19T19:37:26.747Z,100720.45
2022-12-19T19:42:30.712Z,100713.00
2022-12-19T19:47:37.739Z,100709.67
2022-12-19T19:52:42.339Z,100701.88
2022-12-19T19:57:46.185Z,100705.88
2022-12-19T20:02:52.164Z,100707.23
2022-12-19T20:07:56.747Z,100700.98
2022-12-19T20:13:00.491Z,100692.33
2022-12-19T20:18:03.869Z,100688.58
2022-12-19T20:23:07.982Z,100677.19
2022-12-19T20:28:11.559Z,100673.90
2022-12-19T20:33:16.092Z,100677.05
2022-12-19T20:38:20.945Z,100670.55
2022-12-19T20:43:25.254Z,100671.48
2022-12-19T20:48:32.175Z,100659.65
2022-12-19T20:53:38.234Z,100655.34
2022-12-19T20:58:42.594Z,100653.45
2022-12-19T21:03:48.610Z,100652.84
2022-12-19T21:08:55.775Z,100648.04
2022-12-19T21:14:06.724Z,100647.04
2022-12-19T21:19:12.491Z,100643.02
2022-12-19T21:24:17.496Z,100634.88
2022-12-19T21:29:22.640Z,100639.28
2022-12-19T21:34:27.281Z,100622.73
2022-12-19T21:39:32.144Z,100616.69
2022-12-19T21:44:38.206Z,100609.44
2022-12-19T21:49:43.271Z,100615.24
2022-12-19T21:54:47.954Z,100614.14
2022-12-19T21:59:52.939Z,100604.37
2022-12-19T22:04:57.447Z,100597.36
2022-12-19T22:10:02.524Z,100589.31
2022-12-19T22:15:07.410Z,100580.38
2022-12-19T22:20:12.893Z,100578.45
2022-12-19T22:25:18.395Z,100579.63
2022-12-19T22:30:23.383Z,100578.17
2022-12-19T22:35:28.563Z,100577.95
2022-12-19T22:40:33.425Z,100572.41
2022-12-19T22:45:38.072Z,100565.42
2022-12-19T22:50:47.395Z,100563.41
2022-12-19T22:55:52.180Z,100558.66
2022-12-19T23:00:57.130Z,100555.64
2022-12-19T23:06:02.986Z,100555.16
2022-12-19T23:11:09.978Z,100550.86
2022-12-19T23:16:14.084Z,100549.17
2022-12-19T23:21:25.134Z,100546.52
2022-12-19T23:26:33.755Z,100546.25
2022-12-19T23:31:41.620Z,100539.08
2022-12-19T23:42:11.294Z,100527.36
2022-12-19T23:47:14.899Z,100521.33
2022-12-19T23:52:18.808Z,100522.85
2022-12-19T23:57:22.363Z,100521.73
